ZRH weather

Zürich Airport
Zurich, Canton of Zurich, Switzerland

Public forecast

Using degrees Celsius for public forecast. Weather courtesy of forecast.io.

Current aviation weather report (METAR) for Zürich Airport

Retrieved 2020/01/23 10:20 UTC (15 minutes ago):

LSZH 231020Z 07006KT 040V110 4000 BR OVC006 M03/M04 Q1030 WS ALL RWY BECMG 5000

Aviation forecast (TAF) for Zürich Airport

Retrieved 2020/01/23 09:33 UTC (1 hour ago):

TAF LSZH 230825Z 2309/2415 06006KT 4000 BR OVC004 TX00/2315Z TNM03/2405Z TX05/2415Z BECMG 2310/2313 5000 BKN006 PROB30 TEMPO 2313/2317 SCT006 BECMG 2314/2317 VRB03KT BECMG 2318/2320 3500 BR OVC004 PROB40 2400/2408 0800 FZFG VV003 BECMG 2410/2413 5000 SCT010